Latest Weather Observations for Truscott

IDD60801

Issued at 5:05 pm CST Tuesday 2 September 2014 (issued every 30 minutes, with the page automatically refreshed every 10 minutes)

About weather observations | Map of weather stations | Latest weather observations for NT | Other Formats
Station Details ID: 001020 Name: TRUSCOTT Lat: -14.09 Lon: 126.39 Height: 51.0 m
Data from the previous 72 hours. | See also: Recent months at Truscott
Date/Time
CST
Temp
°C
App
Temp
°C
Dew
Point
Rel
Hum
%
Delta-T
°C
Wind Press
QNH
hPa
Press
MSL
hPa
Rain
since 9 am
mm
Dir
 
Spd
km/h
Gust
km/h
Spd
kts
Gust
kts
02/05:00pm 27.4 24.7 13.0 41 8.5 N 19 28 10 15 1012.2 - 0.0
02/04:30pm 28.4 25.9 12.3 37 9.4 N 17 30 9 16 1012.0 1011.5 0.0
02/04:00pm 28.7 26.1 13.8 40 8.9 N 20 30 11 16 1012.1 - 0.0
02/03:30pm 29.3 26.3 12.7 36 9.8 N 20 30 11 16 1012.3 - 0.0
02/03:00pm 29.9 26.5 10.5 30 11.1 NNE 19 32 10 17 1012.6 - 0.0
02/02:30pm 32.0 27.6 8.9 24 13.0 N 22 35 12 19 1012.8 - 0.0
02/02:00pm 34.3 30.3 4.9 16 15.7 ENE 15 24 8 13 1012.8 - 0.0
02/01:30pm 33.6 29.3 5.2 17 15.2 E 17 28 9 15 1013.1 1012.6 0.0
02/01:00pm 32.5 28.2 5.1 18 14.5 E 17 28 9 15 1013.7 - 0.0
02/12:30pm 33.0 28.9 6.3 19 14.5 E 17 26 9 14 1014.1 - 0.0
02/12:00pm 32.3 28.3 6.5 20 14.0 ESE 17 28 9 15 1014.5 - 0.0
02/11:30am 31.8 28.7 8.7 24 12.9 ESE 15 20 8 11 1014.9 - 0.0
02/11:00am 31.0 27.4 6.8 22 13.1 ESE 15 26 8 14 1015.4 - 0.0
02/10:30am 29.9 28.0 8.9 27 11.7 ESE 9 15 5 8 1015.5 1015.1 0.0
02/10:00am 28.3 26.3 8.6 29 10.8 S 9 15 5 8 1015.5 - 0.0
02/09:30am 26.9 25.1 9.3 33 9.7 SSW 9 13 5 7 1015.4 - 0.0
02/09:00am 24.4 22.5 11.7 45 7.2 SSW 13 17 7 9 1015.2 - 0.0
02/08:30am 23.5 21.1 9.9 42 7.4 SSW 13 17 7 9 1015.0 - 0.0
02/08:23am 23.3 20.8 9.7 42 7.4 SSW 13 17 7 9 1015.0 - 0.0
02/08:00am 18.3 17.4 12.7 70 3.1 S 9 13 5 7 1014.9 - 0.0
02/07:30am 16.0 16.0 13.5 85 1.4 S 6 7 3 4 1014.8 1014.3 0.0
02/07:00am 16.1 17.4 14.1 88 1.1 CALM 0 0 0 0 1014.5 - 0.0
02/06:30am 16.1 16.2 13.8 86 1.3 SSW 6 7 3 4 1014.3 - 0.0
02/06:00am 16.8 16.8 14.3 85 1.4 SSW 7 9 4 5 1014.0 - 0.0
02/05:30am 18.9 18.8 15.0 78 2.3 SSW 9 11 5 6 1013.9 - 0.0
02/05:00am 19.7 20.2 16.5 82 1.9 SSW 9 11 5 6 1013.9 - 0.0
02/04:30am 19.8 20.3 17.4 86 1.5 SSW 11 13 6 7 1013.8 1013.3 0.0
02/04:00am 19.1 20.4 18.4 96 0.4 SW 9 11 5 6 1013.8 - 0.0
02/03:30am 17.8 19.1 17.5 98 0.2 SSW 7 9 4 5 1013.9 - 0.0
02/03:00am 17.6 18.9 17.0 96 0.4 S 6 7 3 4 1014.2 - 0.0
02/02:30am 17.6 20.0 17.0 96 0.4 CALM 0 0 0 0 1014.4 - 0.0
02/02:00am 17.6 19.7 16.3 92 0.8 CALM 0 0 0 0 1014.6 - 0.0
02/01:30am 18.3 20.5 17.5 95 0.5 SSW 2 6 1 3 1014.6 1014.1 0.0
02/01:00am 18.6 21.3 17.8 95 0.5 CALM 0 6 0 3 1014.7 - 0.0
02/12:30am 19.0 21.9 18.2 95 0.5 CALM 0 0 0 0 1014.7 - 0.0
02/12:00am 19.2 22.0 18.0 93 0.7 CALM 0 0 0 0 1014.7 - 0.0
 
Date/Time
CST
Temp
°C
App
Temp
°C
Dew
Point
Rel
Hum
%
Delta-T
°C
Wind Press
QNH
hPa
Press
MSL
hPa
Rain
since 9 am
mm
Dir
 
Spd
km/h
Gust
km/h
Spd
kts
Gust
kts
01/11:30pm 19.6 22.5 18.1 91 0.9 CALM 0 0 0 0 1014.7 - 0.0
01/11:00pm 19.9 23.0 18.6 92 0.8 CALM 0 0 0 0 1015.0 - 0.0
01/10:30pm 20.4 23.4 18.5 89 1.2 CALM 0 0 0 0 1014.9 1014.4 0.0
01/10:00pm 20.4 23.6 18.9 91 0.9 CALM 0 0 0 0 1014.9 - 0.0
01/09:30pm 20.9 24.2 19.0 89 1.2 CALM 0 0 0 0 1014.7 - 0.0
01/09:00pm 21.4 24.8 19.3 88 1.3 CALM 0 0 0 0 1014.3 - 0.0
01/08:30pm 22.2 24.7 19.9 87 1.5 N 6 7 3 4 1014.0 - 0.0
01/08:00pm 22.7 25.2 19.9 84 1.8 N 6 9 3 5 1013.6 - 0.0
01/07:30pm 23.2 25.4 19.6 80 2.3 N 7 11 4 6 1013.3 1012.8 0.0
01/07:00pm 23.9 24.8 19.2 75 3.0 N 13 20 7 11 1012.9 - 0.0
01/06:30pm 25.0 25.3 18.0 65 4.4 N 13 17 7 9 1012.6 - 0.0
01/06:00pm 26.2 25.7 17.0 57 5.7 N 15 24 8 13 1012.2 - 0.0
01/05:30pm 27.3 26.1 15.0 47 7.5 N 15 24 8 13 1011.9 - 0.0
01/05:00pm 27.6 25.2 13.9 43 8.2 N 19 30 10 16 1011.8 - 0.0
01/04:30pm 28.3 25.1 11.4 35 9.7 N 19 30 10 16 1011.8 1011.3 0.0
01/04:00pm 29.5 25.6 8.5 27 11.6 N 19 28 10 15 1011.8 - 0.0
01/03:30pm 30.0 25.6 7.2 24 12.3 N 20 28 11 15 1011.8 - 0.0
01/03:00pm 30.0 24.9 7.8 25 12.1 N 24 35 13 19 1012.0 - 0.0
01/02:30pm 31.9 27.8 6.2 20 13.8 NNE 17 22 9 12 1012.3 - 0.0
01/02:00pm 33.3 27.9 -1.1 11 16.5 E 17 28 9 15 1012.7 - 0.0
01/01:30pm 33.3 29.2 0.1 12 16.3 E 11 22 6 12 1013.2 1012.7 0.0
01/01:00pm 32.5 27.2 -0.5 12 15.9 ESE 17 24 9 13 1013.5 - 0.0
01/12:30pm 32.1 27.5 1.3 14 15.3 SE 15 26 8 14 1013.9 - 0.0
01/12:00pm 31.8 27.1 1.0 14 15.2 ESE 15 24 8 13 1014.6 - 0.0
01/11:30am 31.5 27.9 2.7 16 14.6 E 11 17 6 9 1014.9 - 0.0
01/11:00am 30.1 28.0 6.7 23 12.6 SSE 7 15 4 8 1015.3 - 0.0
01/10:30am 28.8 26.0 6.8 25 11.7 S 11 15 6 8 1015.6 1015.2 0.0
01/10:00am 27.3 24.0 8.2 30 10.4 SSW 15 19 8 10 1015.7 - 0.0
01/09:30am 25.7 23.0 9.1 35 9.1 SSW 13 19 7 10 1015.6 - 0.0
01/09:00am 24.5 22.5 10.0 40 8.0 S 11 15 6 8 1015.5 - 0.0
01/08:30am 22.9 20.7 9.3 42 7.3 SSW 11 15 6 8 1015.2 - 0.0
01/08:00am 21.2 18.9 9.1 46 6.4 SSW 11 13 6 7 1014.8 - 0.0
01/07:30am 17.5 16.0 9.2 58 4.3 SW 7 9 4 5 1014.6 1014.1 0.0
01/07:00am 17.7 16.2 9.1 57 4.5 SSW 7 11 4 6 1014.3 - 0.0
01/06:30am 19.2 17.9 9.9 55 5.0 SW 7 9 4 5 1014.0 - 0.0
01/06:00am 20.1 18.2 10.5 54 5.2 SSW 11 13 6 7 1013.7 - 0.0
01/05:30am 19.9 18.0 11.7 59 4.5 SSW 13 15 7 8 1013.6 - 0.0
01/05:00am 19.5 18.7 13.0 66 3.7 SW 9 11 5 6 1013.5 - 0.0
01/04:30am 19.7 18.6 13.2 66 3.7 SSW 11 13 6 7 1013.4 1012.9 0.0
01/04:00am 20.0 18.8 12.7 63 4.1 SW 11 15 6 8 1013.3 - 0.0
01/03:30am 19.8 18.4 12.1 61 4.3 SSW 11 17 6 9 1013.2 - 0.0
01/03:00am 19.7 18.8 11.5 59 4.5 SW 7 9 4 5 1013.2 - 0.0
01/02:30am 19.9 18.6 11.4 58 4.7 SW 9 11 5 6 1013.2 - 0.0
01/02:00am 18.2 17.3 10.8 62 4.0 SW 6 9 3 5 1013.1 - 0.0
01/01:30am 18.5 18.4 10.8 61 4.2 SSE 2 6 1 3 1013.2 1012.7 0.0
01/01:00am 18.4 19.3 12.8 70 3.1 CALM 0 0 0 0 1013.3 - 0.0
01/12:30am 18.0 19.0 13.3 74 2.7 CALM 0 0 0 0 1013.5 - 0.0
01/12:00am 18.1 18.9 12.5 70 3.1 CALM 0 0 0 0 1013.5 - 0.0
 
Date/Time
CST
Temp
°C
App
Temp
°C
Dew
Point
Rel
Hum
%
Delta-T
°C
Wind Press
QNH
hPa
Press
MSL
hPa
Rain
since 9 am
mm
Dir
 
Spd
km/h
Gust
km/h
Spd
kts
Gust
kts
31/11:30pm 18.3 18.7 11.4 64 3.8 CALM 0 0 0 0 1013.3 - 0.0
31/11:00pm 18.9 19.0 10.2 57 4.7 CALM 0 0 0 0 1013.3 - 0.0
31/10:30pm 19.9 20.0 10.0 53 5.3 CALM 0 0 0 0 1013.3 1012.8 0.0
31/10:00pm 21.3 20.0 9.9 48 6.2 E 7 9 4 5 1013.2 - 0.0
31/09:30pm 22.3 20.5 8.1 40 7.5 E 7 9 4 5 1013.0 - 0.0
31/09:00pm 23.8 21.7 6.6 33 8.9 ENE 7 11 4 6 1012.7 - 0.0
31/08:30pm 25.0 21.8 5.2 28 10.0 NE 11 15 6 8 1012.4 - 0.0
31/08:00pm 25.5 22.4 5.7 28 10.2 NE 11 19 6 10 1012.0 - 0.0
31/07:30pm 25.6 23.7 9.0 35 9.0 NE 9 15 5 8 1011.6 1011.1 0.0
31/07:00pm 26.0 24.0 11.4 40 8.3 NNE 13 19 7 10 1011.4 - 0.0
31/06:30pm 27.2 24.9 11.7 38 8.9 NNE 15 26 8 14 1011.2 - 0.0
31/06:00pm 29.3 26.1 8.4 27 11.5 NNE 15 20 8 11 1010.9 - 0.0
31/05:30pm 30.5 25.2 1.9 16 14.2 NE 19 28 10 15 1010.8 - 0.0
31/05:00pm 31.4 26.3 0.7 14 15.0 NE 17 28 9 15 1010.8 - 0.0
31/04:30pm 32.0 26.5 -2.1 11 16.0 ENE 17 30 9 16 1011.0 1010.5 0.0
31/04:00pm 32.0 26.0 -3.4 10 16.2 ENE 19 26 10 14 1011.1 - 0.0
31/03:30pm 32.4 27.2 -3.1 10 16.4 ENE 15 24 8 13 1011.3 - 0.0
31/03:00pm 32.2 26.2 -3.2 10 16.3 E 19 28 10 15 1011.7 - 0.0
31/02:30pm 31.6 26.1 -2.4 11 15.8 ENE 17 30 9 16 1012.0 - 0.0
31/02:00pm 32.0 26.3 -3.4 10 16.2 ENE 17 24 9 13 1012.5 - 0.0
31/01:30pm 31.4 26.1 -0.3 13 15.2 E 17 28 9 15 1012.9 1012.4 0.0
31/01:00pm 31.2 25.8 -1.5 12 15.4 ENE 17 26 9 14 1013.4 - 0.0
31/12:30pm 30.3 24.8 0.8 15 14.3 E 19 30 10 16 1013.9 - 0.0
31/12:00pm 30.0 24.5 0.6 15 14.2 E 19 28 10 15 1014.4 - 0.0
31/11:30am 30.1 24.7 1.5 16 14.1 E 19 32 10 17 1014.7 - 0.0
31/11:00am 29.4 23.6 0.1 15 14.0 ESE 20 30 11 16 1014.9 - 0.0
31/10:30am 29.0 24.3 0.7 16 13.6 ESE 15 24 8 13 1015.1 1014.7 0.0
31/10:00am 27.8 22.5 -0.3 16 13.2 ESE 17 26 9 14 1015.2 - 0.0
31/09:30am 26.8 23.2 2.7 21 11.8 ESE 11 19 6 10 1015.0 - 0.0
31/09:00am 25.2 22.6 5.9 29 9.9 SSE 9 13 5 7 1014.9 - 0.0
31/08:30am 23.2 20.8 6.9 35 8.4 SSE 9 13 5 7 1014.7 - 0.0
31/08:00am 20.0 18.0 8.7 48 5.9 S 9 11 5 6 1014.4 - 0.0
31/07:30am 18.2 16.6 8.7 54 4.9 S 7 9 4 5 1014.1 1013.6 0.0
31/07:00am 20.5 17.4 8.8 47 6.2 SW 15 20 8 11 1013.6 - 0.0
31/06:30am 20.0 17.8 9.3 50 5.7 SW 11 15 6 8 1013.5 - 0.0
31/06:00am 20.1 17.7 9.9 52 5.5 SW 13 17 7 9 1013.2 - 0.0
31/05:30am 21.1 18.2 9.7 48 6.1 SSW 15 20 8 11 1013.2 - 0.0
31/05:00am 21.4 18.2 9.9 48 6.2 SSW 17 22 9 12 1013.2 - 0.0
31/04:30am 20.8 18.4 11.4 55 5.2 SSW 15 20 8 11 1013.2 1012.7 0.0
31/04:00am 20.0 18.4 11.7 59 4.6 SW 11 15 6 8 1013.1 - 0.0
31/03:30am 20.5 18.9 12.7 61 4.4 SSW 13 17 7 9 1013.0 - 0.0
31/03:00am 20.5 19.2 12.5 60 4.5 SSW 11 15 6 8 1013.0 - 0.0
31/02:30am 20.8 18.6 12.2 58 4.8 SSW 15 19 8 10 1013.2 - 0.0
31/02:00am 20.4 18.6 10.8 54 5.3 SSW 11 13 6 7 1013.4 - 0.0
31/01:30am 20.7 19.3 10.8 53 5.4 SSW 9 13 5 7 1013.7 1013.2 0.0
31/01:00am 18.5 17.0 9.3 55 4.8 SSW 7 9 4 5 1013.8 - 0.0
31/12:30am 19.8 18.6 9.7 52 5.4 SW 6 9 3 5 1014.0 - 0.0
31/12:00am 19.5 18.8 10.0 54 5.1 SE 4 13 2 7 1014.0 - 0.0
 
Date/Time
CST
Temp
°C
App
Temp
°C
Dew
Point
Rel
Hum
%
Delta-T
°C
Wind Press
QNH
hPa
Press
MSL
hPa
Rain
since 9 am
mm
Dir
 
Spd
km/h
Gust
km/h
Spd
kts
Gust
kts
30/11:30pm 19.3 18.1 10.3 56 4.8 E 7 9 4 5 1013.9 - 0.0
30/11:00pm 20.7 19.6 10.8 53 5.4 E 7 11 4 6 1014.1 - 0.0
30/10:30pm 21.5 20.4 10.6 50 6.0 E 7 11 4 6 1014.2 1013.7 0.0
30/10:00pm 22.2 20.2 10.0 46 6.6 E 11 13 6 7 1014.1 - 0.0
30/09:30pm 22.0 20.0 8.5 42 7.1 E 9 11 5 6 1014.0 - 0.0
30/09:00pm 22.7 20.5 7.7 38 7.9 ENE 9 13 5 7 1013.7 - 0.0
30/08:30pm 23.0 21.6 9.4 42 7.4 ENE 7 11 4 6 1013.3 - 0.0
30/08:00pm 23.9 23.0 10.6 43 7.4 NE 6 9 3 5 1012.9 - 0.0
30/07:30pm 25.3 23.1 7.9 33 9.3 NNE 9 15 5 8 1012.5 1012.0 0.0
30/07:00pm 26.7 23.6 5.6 26 10.9 NNE 11 20 6 11 1012.2 - 0.0

Other Formats:

Comma delimited format used in spreadsheet applications
http://www.bom.gov.au/fwo/IDD60801/IDD60801.95101.axf

JavaScript Object Notation format (JSON) in row-major order
http://www.bom.gov.au/fwo/IDD60801/IDD60801.95101.json